Time;durP1;ratioP1;P1;durP2;ratioP2;P2;SDS_P1;SDS_P2;PMS_P1;PMS_P2;Temp;Humidity;BMP_temperature;BMP_pressure;BME280_temperature;BME280_humidity;BME280_pressure;Samples;Min_cycle;Max_cycle;Signal;HPM_P1;HPM_P2
2022/04/13 00:02:14;;;;;;;;;;;21.20;43.10;;;;;;5073853;28;20342;-72
2022/04/13 00:04:39;;;;;;;;;;;21.20;43.30;;;;;;5054540;28;19935;-72
2022/04/13 00:07:05;;;;;;;;;;;21.20;43.20;;;;;;5064668;28;19939;-74
2022/04/13 00:09:30;;;;;;;;;;;21.20;43.30;;;;;;5082444;28;19919;-72
2022/04/13 00:11:56;;;;;;;;;;;21.20;43.20;;;;;;5081625;28;19962;-73
2022/04/13 00:14:23;;;;;;;;;;;21.20;43.10;;;;;;5065216;28;19909;-74
2022/04/13 00:16:49;;;;;;;;;;;21.20;44.00;;;;;;5053887;28;20342;-73
2022/04/13 00:19:14;;;;;;;;;;;21.20;43.40;;;;;;5078043;28;20325;-72
2022/04/13 00:21:40;;;;;;;;;;;21.20;43.50;;;;;;5081017;28;19953;-73
2022/04/13 00:24:06;;;;;;;;;;;21.20;43.50;;;;;;5059679;28;20336;-72
2022/04/13 00:26:32;;;;;;;;;;;21.20;43.60;;;;;;5053653;28;20003;-73
2022/04/13 00:28:58;;;;;;;;;;;21.10;43.50;;;;;;5078650;28;20457;-73
2022/04/13 00:31:23;;;;;;;;;;;21.20;43.70;;;;;;5071060;28;19920;-73
2022/04/13 00:33:49;;;;;;;;;;;21.20;43.50;;;;;;5073642;28;19909;-73
2022/04/13 00:36:14;;;;;;;;;;;21.10;43.70;;;;;;5073559;28;19908;-73
2022/04/13 00:38:40;;;;;;;;;;;21.00;43.40;;;;;;5066299;28;19908;-73
2022/04/13 00:41:05;;;;;;;;;;;21.20;43.70;;;;;;5080364;28;19908;-72
2022/04/13 00:43:31;;;;;;;;;;;21.10;43.60;;;;;;5075075;28;19958;-73
2022/04/13 00:45:56;;;;;;;;;;;21.20;43.70;;;;;;5070675;28;19904;-73
2022/04/13 00:48:31;;;;;;;;;;;21.10;43.80;;;;;;5061699;28;20169;-73
2022/04/13 00:50:57;;;;;;;;;;;21.10;43.70;;;;;;5077090;28;19919;-73
2022/04/13 00:53:23;;;;;;;;;;;21.10;43.70;;;;;;5071233;28;19913;-72
2022/04/13 00:55:50;;;;;;;;;;;21.10;43.70;;;;;;5072948;28;20295;-72
2022/04/13 00:58:17;;;;;;;;;;;21.20;43.80;;;;;;5076939;28;19919;-73
2022/04/13 01:00:48;;;;;;;;;;;21.10;43.70;;;;;;5066817;28;19947;-73
2022/04/13 01:03:25;;;;;;;;;;;21.10;43.80;;;;;;5059417;28;19909;-73
2022/04/13 01:05:52;;;;;;;;;;;21.10;43.70;;;;;;5071160;28;19913;-73
2022/04/13 01:08:18;;;;;;;;;;;21.00;43.60;;;;;;5077804;28;19962;-72
2022/04/13 01:10:45;;;;;;;;;;;21.10;43.80;;;;;;5072812;28;19917;-73
2022/04/13 01:13:11;;;;;;;;;;;21.10;43.90;;;;;;5058659;28;19912;-74
2022/04/13 01:15:37;;;;;;;;;;;21.10;43.80;;;;;;5052973;28;19912;-73
2022/04/13 01:18:03;;;;;;;;;;;21.10;43.80;;;;;;5075845;28;19908;-72
2022/04/13 01:20:29;;;;;;;;;;;21.10;43.70;;;;;;5074896;28;20340;-73
2022/04/13 01:22:54;;;;;;;;;;;21.10;43.90;;;;;;5055900;28;19908;-73
2022/04/13 01:25:20;;;;;;;;;;;21.00;43.70;;;;;;5051637;28;19916;-72
2022/04/13 01:27:45;;;;;;;;;;;21.10;43.90;;;;;;5061222;28;19919;-72
2022/04/13 01:30:11;;;;;;;;;;;21.10;43.90;;;;;;5078785;28;20046;-72
2022/04/13 01:32:37;;;;;;;;;;;21.10;43.90;;;;;;5073829;28;19904;-75
2022/04/13 01:35:02;;;;;;;;;;;21.10;43.90;;;;;;5072247;28;19904;-75
2022/04/13 01:37:28;;;;;;;;;;;21.10;44.00;;;;;;5071173;28;19913;-75
2022/04/13 01:39:54;;;;;;;;;;;21.10;44.00;;;;;;5079416;28;19911;-74
2022/04/13 01:42:19;;;;;;;;;;;21.10;44.10;;;;;;5061779;28;20318;-75
2022/04/13 01:44:45;;;;;;;;;;;21.10;44.00;;;;;;5052535;28;20026;-75
2022/04/13 01:47:11;;;;;;;;;;;21.10;44.20;;;;;;5051815;28;20364;-75
2022/04/13 01:49:37;;;;;;;;;;;21.10;44.30;;;;;;5082350;28;20360;-75
2022/04/13 01:52:03;;;;;;;;;;;21.00;44.20;;;;;;5076632;28;19958;-75
2022/04/13 01:54:29;;;;;;;;;;;21.00;44.10;;;;;;5051366;28;19908;-75
2022/04/13 01:56:54;;;;;;;;;;;21.00;44.20;;;;;;5056356;28;20003;-74
2022/04/13 01:59:19;;;;;;;;;;;21.00;44.10;;;;;;5076011;28;19923;-75
2022/04/13 02:01:45;;;;;;;;;;;21.00;44.20;;;;;;5077016;28;19912;-75
2022/04/13 02:04:17;;;;;;;;;;;21.00;44.40;;;;;;5062123;28;20447;-75
2022/04/13 02:06:42;;;;;;;;;;;21.00;44.30;;;;;;5053088;28;19942;-75
2022/04/13 02:09:08;;;;;;;;;;;21.00;44.40;;;;;;5074017;28;19940;-75
2022/04/13 02:11:33;;;;;;;;;;;21.10;44.50;;;;;;5072275;28;19915;-75
2022/04/13 02:13:59;;;;;;;;;;;21.00;44.30;;;;;;5061516;28;19909;-75
2022/04/13 02:16:24;;;;;;;;;;;21.10;44.60;;;;;;5067483;28;19908;-75
2022/04/13 02:18:50;;;;;;;;;;;21.00;44.50;;;;;;5070020;28;20013;-75
2022/04/13 02:21:16;;;;;;;;;;;21.00;45.10;;;;;;5065021;28;19909;-74
2022/04/13 02:23:42;;;;;;;;;;;21.00;44.40;;;;;;5065786;28;19912;-73
2022/04/13 02:26:07;;;;;;;;;;;21.00;45.10;;;;;;5058917;28;20265;-75
2022/04/13 02:28:33;;;;;;;;;;;21.00;44.90;;;;;;5075365;28;20390;-74
2022/04/13 02:30:58;;;;;;;;;;;21.00;44.60;;;;;;5071251;28;19928;-74
2022/04/13 02:33:24;;;;;;;;;;;21.10;44.90;;;;;;5050331;28;19916;-74
2022/04/13 02:35:49;;;;;;;;;;;21.00;44.70;;;;;;5062249;28;20265;-74
2022/04/13 02:38:16;;;;;;;;;;;20.90;44.60;;;;;;5066490;28;20371;-72
2022/04/13 02:40:42;;;;;;;;;;;21.00;44.70;;;;;;5061749;28;19962;-73
2022/04/13 02:43:08;;;;;;;;;;;20.90;44.50;;;;;;5051425;28;19975;-73
2022/04/13 02:45:34;;;;;;;;;;;20.90;44.70;;;;;;5053352;28;20376;-73
2022/04/13 02:48:00;;;;;;;;;;;20.90;44.50;;;;;;5062314;28;19943;-74
2022/04/13 02:50:26;;;;;;;;;;;20.80;44.40;;;;;;5077739;28;19959;-73
2022/04/13 02:52:54;;;;;;;;;;;20.90;44.70;;;;;;5078905;28;19908;-73
2022/04/13 02:55:20;;;;;;;;;;;20.90;44.90;;;;;;5064657;28;19908;-74
2022/04/13 02:57:45;;;;;;;;;;;20.90;44.70;;;;;;5055658;28;19963;-74
2022/04/13 03:00:11;;;;;;;;;;;20.90;44.60;;;;;;5074574;28;19985;-74
2022/04/13 03:02:39;;;;;;;;;;;20.90;44.60;;;;;;5071034;28;19947;-73
2022/04/13 03:05:05;;;;;;;;;;;20.90;44.60;;;;;;5069322;28;19956;-74
2022/04/13 03:07:32;;;;;;;;;;;20.90;44.60;;;;;;5071390;28;20402;-74
2022/04/13 03:09:58;;;;;;;;;;;20.90;44.60;;;;;;5076824;28;19915;-74
2022/04/13 03:12:24;;;;;;;;;;;20.80;44.60;;;;;;5069811;28;19920;-74
2022/04/13 03:14:50;;;;;;;;;;;20.80;45.00;;;;;;5070292;28;19904;-74
2022/04/13 03:17:17;;;;;;;;;;;20.80;44.60;;;;;;5071773;28;19908;-73
2022/04/13 03:19:42;;;;;;;;;;;20.80;44.70;;;;;;5066879;28;20287;-73
2022/04/13 03:22:07;;;;;;;;;;;20.80;44.60;;;;;;5050857;28;19908;-73
2022/04/13 03:24:34;;;;;;;;;;;20.80;44.60;;;;;;5050740;28;19924;-73
2022/04/13 03:26:59;;;;;;;;;;;20.80;44.40;;;;;;5065474;28;19911;-74
2022/04/13 03:29:25;;;;;;;;;;;20.80;44.40;;;;;;5075613;28;19912;-73
2022/04/13 03:31:50;;;;;;;;;;;20.80;44.50;;;;;;5070521;28;19995;-74
2022/04/13 03:34:20;;;;;;;;;;;20.80;44.50;;;;;;5058014;28;21177;-74
2022/04/13 03:36:49;;;;;;;;;;;20.80;44.50;;;;;;5063786;28;19916;-73
2022/04/13 03:39:14;;;;;;;;;;;20.80;44.60;;;;;;5074276;28;19915;-73
2022/04/13 03:41:40;;;;;;;;;;;20.80;44.50;;;;;;5069871;28;19908;-74
2022/04/13 03:44:05;;;;;;;;;;;20.80;44.70;;;;;;5070546;28;20402;-73
2022/04/13 03:46:31;;;;;;;;;;;20.70;44.40;;;;;;5060536;28;19916;-74
2022/04/13 03:48:57;;;;;;;;;;;20.70;44.40;;;;;;5077842;28;19908;-73
2022/04/13 03:51:22;;;;;;;;;;;20.70;44.50;;;;;;5060083;28;20330;-74
2022/04/13 03:53:48;;;;;;;;;;;20.70;44.60;;;;;;5050950;28;19969;-74
2022/04/13 03:56:14;;;;;;;;;;;20.80;44.80;;;;;;5054956;28;19916;-74
2022/04/13 03:58:42;;;;;;;;;;;20.70;44.70;;;;;;5082709;28;20374;-72
2022/04/13 04:01:08;;;;;;;;;;;20.70;44.80;;;;;;5066152;28;20330;-74
2022/04/13 04:03:34;;;;;;;;;;;20.70;44.80;;;;;;5060127;28;20295;-73
2022/04/13 04:05:59;;;;;;;;;;;20.70;44.80;;;;;;5065394;28;19927;-73
2022/04/13 04:08:26;;;;;;;;;;;20.70;44.90;;;;;;5054687;28;19963;-70
2022/04/13 04:10:52;;;;;;;;;;;20.70;44.90;;;;;;5055679;28;19916;-74
2022/04/13 04:13:18;;;;;;;;;;;20.70;44.90;;;;;;5070043;28;19995;-73
2022/04/13 04:15:43;;;;;;;;;;;20.70;44.80;;;;;;5073953;28;20454;-74
2022/04/13 04:18:09;;;;;;;;;;;20.70;44.90;;;;;;5086170;28;19904;-74
2022/04/13 04:20:34;;;;;;;;;;;20.70;44.80;;;;;;5067213;28;19915;-74
2022/04/13 04:23:00;;;;;;;;;;;20.70;44.90;;;;;;5075514;28;19912;-75
2022/04/13 04:25:25;;;;;;;;;;;20.70;44.90;;;;;;5063242;28;19959;-74
2022/04/13 04:27:51;;;;;;;;;;;20.70;45.00;;;;;;5076649;28;19944;-74
2022/04/13 04:30:16;;;;;;;;;;;20.70;44.90;;;;;;5066059;28;19999;-74
2022/04/13 04:32:42;;;;;;;;;;;20.70;44.90;;;;;;5062429;28;19916;-74
2022/04/13 04:35:07;;;;;;;;;;;20.70;44.90;;;;;;5069560;28;20427;-74
2022/04/13 04:37:33;;;;;;;;;;;20.60;44.90;;;;;;5083594;28;19904;-74
2022/04/13 04:39:58;;;;;;;;;;;20.60;45.00;;;;;;5087576;28;20312;-74
2022/04/13 04:42:25;;;;;;;;;;;20.70;45.00;;;;;;5065545;28;19912;-74
2022/04/13 04:44:57;;;;;;;;;;;20.70;45.30;;;;;;5064717;28;19912;-74
2022/04/13 04:47:23;;;;;;;;;;;20.70;45.20;;;;;;5080538;28;19912;-71
2022/04/13 04:49:49;;;;;;;;;;;20.70;45.10;;;;;;5076360;28;20303;-72
2022/04/13 04:52:14;;;;;;;;;;;20.70;45.00;;;;;;5073420;28;21952;-73
2022/04/13 04:54:39;;;;;;;;;;;20.60;44.90;;;;;;5063027;22;19921;-72
2022/04/13 04:57:05;;;;;;;;;;;20.60;44.70;;;;;;5030044;28;19913;-72
2022/04/13 04:59:30;;;;;;;;;;;20.60;45.00;;;;;;5043597;28;20276;-73
2022/04/13 05:01:56;;;;;;;;;;;20.60;44.80;;;;;;5053679;28;19909;-74
2022/04/13 05:04:22;;;;;;;;;;;20.50;44.60;;;;;;5041265;28;19920;-73
2022/04/13 05:06:47;;;;;;;;;;;20.60;44.80;;;;;;5034351;28;19909;-73
2022/04/13 05:09:13;;;;;;;;;;;20.50;44.70;;;;;;5041045;28;19906;-72
2022/04/13 05:11:38;;;;;;;;;;;20.40;44.70;;;;;;5034158;28;20008;-72
2022/04/13 05:14:04;;;;;;;;;;;20.50;44.70;;;;;;5031191;28;19975;-73
2022/04/13 05:16:30;;;;;;;;;;;20.50;44.70;;;;;;5031076;28;19909;-72
2022/04/13 05:18:55;;;;;;;;;;;20.50;44.60;;;;;;5037192;28;19924;-73
2022/04/13 05:21:20;;;;;;;;;;;20.50;44.70;;;;;;5041743;28;19916;-73
2022/04/13 05:23:46;;;;;;;;;;;20.50;44.70;;;;;;5044460;28;19909;-72
2022/04/13 05:26:12;;;;;;;;;;;20.60;44.80;;;;;;5051782;28;20449;-73
2022/04/13 05:28:37;;;;;;;;;;;20.60;45.00;;;;;;5047547;28;19962;-72
2022/04/13 05:31:03;;;;;;;;;;;20.60;44.90;;;;;;5046546;28;19999;-73
2022/04/13 05:33:28;;;;;;;;;;;20.60;45.60;;;;;;5052074;28;19905;-73
2022/04/13 05:35:54;;;;;;;;;;;20.60;45.00;;;;;;5053173;28;20367;-73
2022/04/13 05:38:19;;;;;;;;;;;20.60;44.90;;;;;;5050740;28;19915;-72
2022/04/13 05:40:45;;;;;;;;;;;20.60;45.00;;;;;;5044840;28;20351;-73
2022/04/13 05:43:10;;;;;;;;;;;20.70;45.00;;;;;;5054055;28;19919;-73
2022/04/13 05:45:36;;;;;;;;;;;20.70;45.00;;;;;;5054524;28;19905;-73
2022/04/13 05:48:02;;;;;;;;;;;20.60;45.00;;;;;;5052009;28;19931;-73
2022/04/13 05:50:27;;;;;;;;;;;20.60;44.90;;;;;;5044892;28;19954;-73
2022/04/13 05:52:53;;;;;;;;;;;20.70;45.20;;;;;;5053523;28;19904;-73
2022/04/13 05:55:18;;;;;;;;;;;20.70;45.20;;;;;;5053456;28;19962;-74
2022/04/13 05:57:44;;;;;;;;;;;20.70;45.40;;;;;;5051392;28;19909;-73
2022/04/13 06:00:10;;;;;;;;;;;20.80;45.60;;;;;;5044830;28;19963;-76
2022/04/13 06:02:36;;;;;;;;;;;20.80;45.30;;;;;;5053486;28;19904;-76
2022/04/13 06:05:02;;;;;;;;;;;20.80;44.60;;;;;;5051822;28;20270;-75
2022/04/13 06:07:27;;;;;;;;;;;20.80;44.70;;;;;;5051949;28;19970;-74
2022/04/13 06:09:53;;;;;;;;;;;20.80;44.50;;;;;;5052769;28;19935;-75
2022/04/13 06:12:22;;;;;;;;;;;20.90;44.60;;;;;;5053648;28;20310;-75
2022/04/13 06:14:48;;;;;;;;;;;20.90;44.60;;;;;;5053585;28;20287;-75
2022/04/13 06:17:13;;;;;;;;;;;20.90;44.70;;;;;;5051641;28;19905;-74
2022/04/13 06:19:38;;;;;;;;;;;20.90;44.60;;;;;;5045504;28;20291;-76
2022/04/13 06:22:04;;;;;;;;;;;21.00;44.80;;;;;;5036421;28;19955;-74
2022/04/13 06:24:29;;;;;;;;;;;21.00;45.20;;;;;;5032648;28;19905;-75
2022/04/13 06:26:55;;;;;;;;;;;21.00;45.10;;;;;;5043064;28;20397;-74
2022/04/13 06:29:20;;;;;;;;;;;21.10;44.40;;;;;;5057304;28;19920;-74
2022/04/13 06:31:46;;;;;;;;;;;21.10;44.80;;;;;;5032567;28;19912;-74
2022/04/13 06:34:11;;;;;;;;;;;21.10;44.80;;;;;;5032397;28;19905;-74
2022/04/13 06:36:37;;;;;;;;;;;21.10;44.40;;;;;;5031634;28;19909;-74
2022/04/13 06:39:02;;;;;;;;;;;21.20;44.00;;;;;;5040311;28;20689;-74
2022/04/13 06:41:28;;;;;;;;;;;21.20;44.30;;;;;;5043926;28;19931;-74
2022/04/13 06:43:53;;;;;;;;;;;21.20;44.50;;;;;;5052009;28;19931;-74
2022/04/13 06:46:19;;;;;;;;;;;21.20;44.40;;;;;;5050583;28;19913;-74
2022/04/13 06:48:45;;;;;;;;;;;21.30;44.40;;;;;;5043676;28;20225;-74
2022/04/13 06:51:10;;;;;;;;;;;21.30;44.50;;;;;;5051119;28;20003;-75
2022/04/13 06:53:36;;;;;;;;;;;21.20;44.40;;;;;;5034545;28;19921;-74
2022/04/13 06:56:01;;;;;;;;;;;21.30;44.40;;;;;;5048401;28;19944;-74
2022/04/13 06:58:27;;;;;;;;;;;21.40;44.80;;;;;;5043412;28;19905;-75
2022/04/13 07:00:52;;;;;;;;;;;21.40;44.70;;;;;;5052054;28;19967;-74
2022/04/13 07:03:18;;;;;;;;;;;21.50;43.60;;;;;;5051842;28;19909;-73
2022/04/13 07:05:43;;;;;;;;;;;21.50;44.40;;;;;;5050418;28;19995;-74
2022/04/13 07:08:09;;;;;;;;;;;21.50;44.10;;;;;;5043498;28;19943;-74
2022/04/13 07:10:35;;;;;;;;;;;21.60;44.00;;;;;;5051516;28;19912;-73
2022/04/13 07:13:00;;;;;;;;;;;21.50;43.90;;;;;;5051986;28;20060;-74
2022/04/13 07:15:26;;;;;;;;;;;21.60;43.80;;;;;;5047896;28;19909;-74
2022/04/13 07:17:52;;;;;;;;;;;21.60;44.00;;;;;;5045397;28;19905;-74
2022/04/13 07:20:17;;;;;;;;;;;21.70;43.60;;;;;;5047969;28;19911;-74
2022/04/13 07:22:43;;;;;;;;;;;21.70;43.70;;;;;;5050453;28;19908;-73
2022/04/13 07:25:09;;;;;;;;;;;21.70;43.40;;;;;;5049708;28;19978;-73
2022/04/13 07:27:34;;;;;;;;;;;21.70;43.40;;;;;;5043311;28;20274;-74
2022/04/13 07:30:00;;;;;;;;;;;21.70;43.50;;;;;;5051330;28;19909;-74
2022/04/13 07:32:25;;;;;;;;;;;21.70;43.40;;;;;;5051623;28;19974;-74
2022/04/13 07:34:50;;;;;;;;;;;21.70;43.60;;;;;;5049945;28;19919;-74
2022/04/13 07:37:16;;;;;;;;;;;21.80;43.40;;;;;;5043245;28;19911;-74
2022/04/13 07:39:41;;;;;;;;;;;21.80;43.40;;;;;;5051187;28;19908;-74
2022/04/13 07:42:07;;;;;;;;;;;21.90;43.30;;;;;;5051731;28;19911;-74
2022/04/13 07:44:32;;;;;;;;;;;21.90;43.30;;;;;;5041162;28;19909;-74
2022/04/13 07:46:58;;;;;;;;;;;21.90;43.30;;;;;;5055132;28;19905;-74
2022/04/13 07:49:23;;;;;;;;;;;21.90;43.20;;;;;;5030990;28;19905;-73
2022/04/13 07:51:49;;;;;;;;;;;21.90;43.20;;;;;;5031693;28;19905;-74
2022/04/13 07:54:14;;;;;;;;;;;21.90;43.10;;;;;;5034859;28;19912;-74
2022/04/13 07:56:40;;;;;;;;;;;22.00;43.20;;;;;;5046848;28;19909;-73
2022/04/13 07:59:05;;;;;;;;;;;21.90;43.00;;;;;;5045985;28;19909;-74
2022/04/13 08:01:31;;;;;;;;;;;22.00;43.10;;;;;;5050821;28;20318;-73
2022/04/13 08:03:56;;;;;;;;;;;22.00;43.10;;;;;;5038806;28;19927;-73
2022/04/13 08:06:22;;;;;;;;;;;22.00;43.10;;;;;;5032351;28;19999;-73
2022/04/13 08:08:48;;;;;;;;;;;22.00;43.00;;;;;;5044668;28;20368;-73
2022/04/13 08:11:13;;;;;;;;;;;22.10;43.00;;;;;;5048531;28;19943;-74
2022/04/13 08:13:39;;;;;;;;;;;22.10;42.90;;;;;;5045923;28;19904;-73
2022/04/13 08:16:04;;;;;;;;;;;22.10;43.50;;;;;;5055046;28;19905;-73
2022/04/13 08:18:31;;;;;;;;;;;22.20;43.00;;;;;;5053270;28;19970;-74
2022/04/13 08:20:56;;;;;;;;;;;22.20;42.90;;;;;;5043089;28;19967;-72
2022/04/13 08:23:22;;;;;;;;;;;22.20;42.90;;;;;;5052043;28;19908;-73
2022/04/13 08:25:47;;;;;;;;;;;22.20;42.90;;;;;;5054710;28;19912;-74
2022/04/13 08:28:13;;;;;;;;;;;22.20;42.90;;;;;;5055001;28;20415;-74
2022/04/13 08:30:38;;;;;;;;;;;22.20;42.80;;;;;;5048719;28;19912;-73
2022/04/13 08:33:03;;;;;;;;;;;22.20;42.90;;;;;;5046263;28;20323;-74
2022/04/13 08:35:29;;;;;;;;;;;22.20;42.80;;;;;;5054524;28;19904;-74
2022/04/13 08:37:54;;;;;;;;;;;22.20;42.80;;;;;;5053396;28;19905;-74
2022/04/13 08:40:21;;;;;;;;;;;22.20;42.80;;;;;;5048689;28;19921;-74
2022/04/13 08:42:49;;;;;;;;;;;22.30;42.90;;;;;;5049269;28;20395;-74
2022/04/13 08:45:19;;;;;;;;;;;22.20;42.80;;;;;;5050741;28;19991;-73
2022/04/13 08:47:46;;;;;;;;;;;22.30;42.80;;;;;;5052979;28;19904;-74
2022/04/13 08:50:12;;;;;;;;;;;22.30;42.80;;;;;;5044950;28;20469;-74
2022/04/13 08:52:38;;;;;;;;;;;22.30;42.80;;;;;;5053809;28;19999;-74
2022/04/13 08:55:07;;;;;;;;;;;22.30;42.80;;;;;;5054018;28;19917;-74
2022/04/13 08:57:37;;;;;;;;;;;22.30;42.80;;;;;;5054302;28;19904;-74
2022/04/13 09:00:10;;;;;;;;;;;22.30;42.80;;;;;;5045897;28;19955;-74
2022/04/13 09:02:39;;;;;;;;;;;22.30;42.80;;;;;;5053355;28;20351;-73
2022/04/13 09:05:10;;;;;;;;;;;22.30;42.80;;;;;;5053979;28;19912;-74
2022/04/13 09:07:35;;;;;;;;;;;22.30;42.70;;;;;;5047495;28;19909;-74
2022/04/13 09:10:02;;;;;;;;;;;22.40;42.70;;;;;;5045290;28;20289;-74
2022/04/13 09:12:33;;;;;;;;;;;22.40;42.70;;;;;;5054103;28;19912;-74
2022/04/13 09:14:59;;;;;;;;;;;22.40;42.60;;;;;;5053945;28;19905;-75
2022/04/13 09:17:27;;;;;;;;;;;22.50;42.60;;;;;;5053682;28;19905;-75
2022/04/13 09:19:53;;;;;;;;;;;22.50;42.60;;;;;;5053555;28;19905;-73
2022/04/13 09:22:20;;;;;;;;;;;22.50;42.50;;;;;;5053967;28;19940;-73
2022/04/13 09:24:47;;;;;;;;;;;22.50;42.50;;;;;;5053580;28;19901;-74
2022/04/13 09:27:12;;;;;;;;;;;22.50;42.50;;;;;;5053782;28;20275;-73
2022/04/13 09:29:37;;;;;;;;;;;22.50;42.50;;;;;;5053227;28;19916;-74
2022/04/13 09:32:03;;;;;;;;;;;22.50;42.40;;;;;;5053698;28;19948;-73
2022/04/13 09:34:29;;;;;;;;;;;22.50;42.40;;;;;;5053346;28;19962;-73
2022/04/13 09:36:55;;;;;;;;;;;22.60;42.50;;;;;;5053609;28;19943;-73
2022/04/13 09:39:21;;;;;;;;;;;22.60;42.40;;;;;;5053198;28;19908;-70
2022/04/13 09:41:46;;;;;;;;;;;22.60;42.40;;;;;;5029343;28;19924;-74
2022/04/13 09:44:13;;;;;;;;;;;22.60;42.90;;;;;;5032376;28;19909;-75
2022/04/13 09:46:42;;;;;;;;;;;22.60;42.70;;;;;;5031716;28;19901;-75
2022/04/13 09:49:15;;;;;;;;;;;22.60;42.80;;;;;;5032053;28;19909;-75
2022/04/13 09:51:41;;;;;;;;;;;22.60;42.70;;;;;;5031786;28;19913;-75
2022/04/13 09:54:08;;;;;;;;;;;22.60;42.70;;;;;;5031979;28;20399;-75
2022/04/13 09:56:35;;;;;;;;;;;22.60;42.80;;;;;;5032085;28;19909;-76
2022/04/13 09:59:01;;;;;;;;;;;22.70;43.00;;;;;;5031848;28;20327;-76
2022/04/13 10:01:26;;;;;;;;;;;22.70;42.90;;;;;;5031948;28;19915;-76
2022/04/13 10:03:55;;;;;;;;;;;22.70;42.90;;;;;;5031685;28;19909;-75
2022/04/13 10:06:28;;;;;;;;;;;22.70;43.00;;;;;;5031207;28;19928;-76
2022/04/13 10:09:01;;;;;;;;;;;22.70;43.00;;;;;;5031840;28;19909;-75
2022/04/13 10:11:26;;;;;;;;;;;22.70;42.90;;;;;;5029813;28;19916;-76
2022/04/13 10:13:52;;;;;;;;;;;22.70;43.00;;;;;;5030925;28;19909;-76
2022/04/13 10:16:17;;;;;;;;;;;22.70;42.60;;;;;;5031992;28;19905;-76
2022/04/13 10:18:56;;;;;;;;;;;22.70;42.70;;;;;;5030655;28;19916;-76
2022/04/13 10:21:40;;;;;;;;;;;22.70;42.70;;;;;;5033623;28;19931;-75
2022/04/13 10:24:07;;;;;;;;;;;22.90;43.80;;;;;;5038680;28;19917;-73
2022/04/13 10:26:33;;;;;;;;;;;23.10;43.20;;;;;;5048550;28;19911;-75
2022/04/13 10:28:59;;;;;;;;;;;23.00;42.50;;;;;;5061777;28;19952;-76
2022/04/13 10:31:25;;;;;;;;;;;23.00;42.40;;;;;;5041134;28;19909;-76
2022/04/13 10:33:52;;;;;;;;;;;22.90;42.30;;;;;;5032408;28;19909;-76
2022/04/13 10:36:18;;;;;;;;;;;23.00;42.30;;;;;;5049108;28;19904;-76
2022/04/13 10:38:44;;;;;;;;;;;22.90;42.00;;;;;;5052360;28;20363;-77
2022/04/13 10:41:13;;;;;;;;;;;22.80;41.90;;;;;;5052394;28;19940;-76
2022/04/13 10:43:39;;;;;;;;;;;22.80;41.90;;;;;;5052311;28;20298;-76
2022/04/13 10:46:05;;;;;;;;;;;22.80;41.60;;;;;;5051034;28;20425;-76
2022/04/13 10:48:32;;;;;;;;;;;22.80;41.70;;;;;;5062821;28;19913;-76
2022/04/13 10:51:02;;;;;;;;;;;22.70;41.50;;;;;;5046261;28;19913;-76
2022/04/13 10:53:28;;;;;;;;;;;22.70;41.50;;;;;;5046091;28;19913;-76
2022/04/13 10:55:58;;;;;;;;;;;22.70;41.60;;;;;;5032623;28;19912;-76
2022/04/13 10:58:31;;;;;;;;;;;22.70;41.50;;;;;;5040616;28;19962;-77
2022/04/13 11:01:02;;;;;;;;;;;22.70;41.40;;;;;;5040925;28;19909;-76
2022/04/13 11:03:32;;;;;;;;;;;22.70;41.30;;;;;;5038117;28;19950;-76
2022/04/13 11:05:58;;;;;;;;;;;22.70;41.30;;;;;;5051831;28;19912;-76
2022/04/13 11:08:32;;;;;;;;;;;22.70;41.20;;;;;;5034353;28;20047;-77
2022/04/13 11:10:57;;;;;;;;;;;22.60;41.10;;;;;;5046737;28;19962;-77
2022/04/13 11:13:23;;;;;;;;;;;22.70;41.20;;;;;;5045956;28;19968;-78
2022/04/13 11:15:50;;;;;;;;;;;22.50;41.10;;;;;;5039765;28;19995;-77
2022/04/13 11:18:17;;;;;;;;;;;22.60;41.10;;;;;;5046255;28;19915;-77
2022/04/13 11:21:00;;;;;;;;;;;22.60;41.10;;;;;;5051439;28;19922;-77
2022/04/13 11:23:48;;;;;;;;;;;22.60;41.10;;;;;;5051718;28;19905;-76
2022/04/13 11:26:14;;;;;;;;;;;22.50;41.10;;;;;;5050368;28;20125;-76
2022/04/13 11:28:40;;;;;;;;;;;22.60;41.10;;;;;;5043631;28;19996;-77
2022/04/13 11:31:07;;;;;;;;;;;22.50;41.10;;;;;;5032079;28;20075;-78
2022/04/13 11:33:52;;;;;;;;;;;22.50;40.90;;;;;;5039945;28;19908;-76
2022/04/13 11:36:19;;;;;;;;;;;22.50;40.90;;;;;;5032183;28;19912;-75
2022/04/13 11:38:45;;;;;;;;;;;22.50;41.70;;;;;;5031826;28;19948;-73
2022/04/13 11:41:11;;;;;;;;;;;22.40;41.70;;;;;;5030693;28;20312;-76
2022/04/13 11:43:39;;;;;;;;;;;22.50;41.50;;;;;;5054314;28;19905;-74
2022/04/13 11:46:04;;;;;;;;;;;22.40;41.50;;;;;;5055114;28;20276;-75
2022/04/13 11:48:35;;;;;;;;;;;22.40;41.20;;;;;;5055219;28;19912;-76
2022/04/13 11:51:36;;;;;;;;;;;22.40;41.30;;;;;;5047450;28;19909;-76
2022/04/13 11:54:11;;;;;;;;;;;22.40;41.10;;;;;;5008407;28;20356;-76
2022/04/13 11:56:37;;;;;;;;;;;22.40;41.20;;;;;;5049698;28;19905;-76
2022/04/13 11:59:03;;;;;;;;;;;22.40;41.00;;;;;;5051568;28;19913;-76
2022/04/13 12:01:30;;;;;;;;;;;22.40;41.20;;;;;;5042005;28;19945;-76
2022/04/13 12:03:56;;;;;;;;;;;22.40;41.00;;;;;;5047504;28;20386;-76
2022/04/13 12:06:24;;;;;;;;;;;22.30;40.80;;;;;;5045568;28;19905;-76
2022/04/13 12:08:56;;;;;;;;;;;22.30;40.70;;;;;;5050677;28;19905;-76
2022/04/13 12:11:23;;;;;;;;;;;22.30;40.70;;;;;;5035765;28;19913;-76
2022/04/13 12:13:55;;;;;;;;;;;22.30;40.80;;;;;;5036345;28;19916;-76
2022/04/13 12:16:22;;;;;;;;;;;22.30;40.80;;;;;;5035893;28;19944;-76
2022/04/13 12:18:48;;;;;;;;;;;22.30;40.70;;;;;;5035887;28;19983;-76
2022/04/13 12:21:17;;;;;;;;;;;22.30;40.70;;;;;;5039569;28;19905;-76
2022/04/13 12:23:43;;;;;;;;;;;22.20;40.60;;;;;;5035168;28;19963;-76
2022/04/13 12:26:09;;;;;;;;;;;22.30;40.40;;;;;;5025962;28;19996;-76
2022/04/13 12:28:35;;;;;;;;;;;22.30;40.60;;;;;;5043240;28;20000;-76
2022/04/13 12:31:08;;;;;;;;;;;22.20;40.50;;;;;;5033486;28;20064;-74
2022/04/13 12:33:35;;;;;;;;;;;22.30;40.90;;;;;;5034634;28;19905;-76
2022/04/13 12:36:01;;;;;;;;;;;22.30;40.60;;;;;;5049344;28;20367;-74
2022/04/13 12:38:33;;;;;;;;;;;22.30;40.40;;;;;;5054366;28;19904;-75
2022/04/13 12:41:02;;;;;;;;;;;22.30;40.70;;;;;;5038040;28;19951;-74
2022/04/13 12:43:28;;;;;;;;;;;22.30;41.10;;;;;;5048281;28;19951;-74
2022/04/13 12:45:55;;;;;;;;;;;22.30;40.80;;;;;;5046531;28;19916;-74
2022/04/13 12:48:27;;;;;;;;;;;22.30;40.90;;;;;;5045166;28;19904;-74
2022/04/13 12:51:00;;;;;;;;;;;22.20;40.90;;;;;;5050811;28;19916;-74
2022/04/13 12:53:26;;;;;;;;;;;22.20;40.80;;;;;;5034230;28;20018;-75
2022/04/13 12:55:55;;;;;;;;;;;22.20;40.80;;;;;;5050843;28;20386;-75
2022/04/13 12:58:21;;;;;;;;;;;22.20;40.60;;;;;;5034128;28;19912;-76
2022/04/13 13:00:49;;;;;;;;;;;22.20;40.40;;;;;;5034200;28;19905;-76
2022/04/13 13:03:15;;;;;;;;;;;22.20;40.40;;;;;;5034301;28;19992;-76
2022/04/13 13:05:40;;;;;;;;;;;22.10;40.30;;;;;;5033185;28;19909;-76
2022/04/13 13:08:06;;;;;;;;;;;22.20;40.30;;;;;;5034230;28;19958;-76
2022/04/13 13:10:32;;;;;;;;;;;22.20;40.30;;;;;;5033699;28;20004;-76
2022/04/13 13:13:15;;;;;;;;;;;22.20;40.40;;;;;;5034043;28;19905;-76
2022/04/13 13:15:41;;;;;;;;;;;22.20;40.20;;;;;;5032831;28;20038;-76
2022/04/13 13:18:09;;;;;;;;;;;22.10;40.10;;;;;;5033972;28;20450;-76
2022/04/13 13:20:51;;;;;;;;;;;22.10;40.20;;;;;;5033891;28;19905;-76
2022/04/13 13:23:21;;;;;;;;;;;22.20;40.30;;;;;;5067463;22;19920;-73
2022/04/13 13:25:47;;;;;;;;;;;22.10;39.90;;;;;;5052191;28;19932;-75
2022/04/13 13:28:12;;;;;;;;;;;22.10;40.00;;;;;;5052088;28;20013;-76
2022/04/13 13:30:41;;;;;;;;;;;22.10;39.80;;;;;;5053097;28;19909;-76
2022/04/13 13:33:12;;;;;;;;;;;22.10;39.80;;;;;;5053197;28;19911;-76
2022/04/13 13:35:38;;;;;;;;;;;22.10;39.80;;;;;;5053401;28;19905;-75
2022/04/13 13:38:10;;;;;;;;;;;22.10;39.80;;;;;;5053495;28;19905;-75
2022/04/13 13:40:36;;;;;;;;;;;22.10;39.80;;;;;;5052979;28;20317;-76
2022/04/13 13:43:08;;;;;;;;;;;22.10;39.70;;;;;;5053539;28;19951;-75
2022/04/13 13:45:35;;;;;;;;;;;22.10;39.70;;;;;;5053181;28;19904;-76
2022/04/13 13:48:02;;;;;;;;;;;22.10;39.70;;;;;;5051956;28;19904;-76
2022/04/13 13:50:28;;;;;;;;;;;22.10;39.70;;;;;;5052826;28;19962;-75
2022/04/13 13:52:53;;;;;;;;;;;22.10;39.80;;;;;;5051769;28;19912;-73
2022/04/13 13:55:27;;;;;;;;;;;22.10;39.70;;;;;;5051745;28;20007;-76
2022/04/13 13:57:53;;;;;;;;;;;22.10;39.80;;;;;;5053471;28;20275;-75
2022/04/13 14:00:19;;;;;;;;;;;22.00;39.60;;;;;;5052639;28;20422;-76
2022/04/13 14:02:52;;;;;;;;;;;22.00;39.60;;;;;;5052847;28;19912;-76
2022/04/13 14:05:19;;;;;;;;;;;22.10;39.70;;;;;;5052054;28;19912;-76
2022/04/13 14:07:45;;;;;;;;;;;22.00;39.40;;;;;;5053062;28;20282;-76
2022/04/13 14:10:11;;;;;;;;;;;22.00;39.30;;;;;;5052341;28;19944;-76
2022/04/13 14:12:36;;;;;;;;;;;22.00;39.40;;;;;;5052756;28;19958;-77
2022/04/13 14:15:02;;;;;;;;;;;22.00;39.30;;;;;;5052621;28;19915;-75